createdAt,value
2018-10-09T00:02:15.882Z,9.77
2018-10-09T00:04:45.542Z,9.85
2018-10-09T00:07:15.194Z,9.69
2018-10-09T00:09:44.304Z,9.85
2018-10-09T00:12:13.443Z,9.76
2018-10-09T00:14:42.474Z,9.69
2018-10-09T00:17:11.476Z,9.68
2018-10-09T00:19:40.570Z,9.62
2018-10-09T00:22:09.671Z,9.59
2018-10-09T00:24:39.046Z,9.70
2018-10-09T00:27:08.181Z,9.57
2018-10-09T00:29:37.483Z,9.27
2018-10-09T00:32:07.067Z,9.40
2018-10-09T00:34:36.128Z,9.53
2018-10-09T00:37:05.314Z,9.54
2018-10-09T00:39:35.030Z,9.52
2018-10-09T00:42:04.525Z,9.49
2018-10-09T00:44:33.586Z,9.47
2018-10-09T00:47:03.493Z,9.37
2018-10-09T00:49:32.491Z,9.33
2018-10-09T00:52:01.764Z,9.39
2018-10-09T00:54:30.773Z,9.46
2018-10-09T00:56:59.886Z,9.27
2018-10-09T00:59:28.884Z,9.18
2018-10-09T01:01:57.910Z,9.43
2018-10-09T01:04:26.973Z,9.29
2018-10-09T01:06:56.104Z,9.21
2018-10-09T01:09:25.320Z,9.24
2018-10-09T01:11:54.362Z,9.24
2018-10-09T01:14:23.421Z,9.31
2018-10-09T01:16:53.793Z,9.30
2018-10-09T01:19:23.051Z,9.21
2018-10-09T01:21:52.887Z,9.18
2018-10-09T01:24:23.224Z,9.21
2018-10-09T01:26:52.402Z,9.18
2018-10-09T01:29:21.811Z,9.10
2018-10-09T01:31:50.865Z,9.14
2018-10-09T01:34:20.266Z,9.25
2018-10-09T01:36:49.321Z,9.16
2018-10-09T01:39:18.627Z,9.16
2018-10-09T01:41:48.691Z,9.19
2018-10-09T01:44:17.841Z,9.16
2018-10-09T01:46:46.983Z,9.17
2018-10-09T01:49:16.131Z,9.12
2018-10-09T01:51:45.224Z,9.26
2018-10-09T01:54:14.471Z,9.26
2018-10-09T01:56:43.629Z,9.02
2018-10-09T01:59:14.204Z,9.08
2018-10-09T02:01:43.338Z,9.23
2018-10-09T02:04:13.081Z,9.14
2018-10-09T02:06:42.166Z,9.17
2018-10-09T02:09:11.336Z,9.21
2018-10-09T02:11:40.388Z,9.17
2018-10-09T02:14:09.833Z,9.18
2018-10-09T02:16:38.945Z,9.22
2018-10-09T02:19:09.165Z,9.24
2018-10-09T02:21:38.161Z,9.00
2018-10-09T02:24:07.316Z,8.93
2018-10-09T02:26:36.333Z,8.84
2018-10-09T02:29:05.341Z,9.05
2018-10-09T02:31:34.416Z,8.96
2018-10-09T02:34:03.554Z,8.82
2018-10-09T02:36:32.578Z,8.58
2018-10-09T02:39:01.678Z,8.63
2018-10-09T02:41:30.667Z,8.78
2018-10-09T02:43:59.766Z,8.86
2018-10-09T02:46:28.752Z,9.01
2018-10-09T02:48:57.971Z,8.96
2018-10-09T02:51:27.008Z,8.68
2018-10-09T02:53:56.161Z,8.67
2018-10-09T02:56:26.443Z,8.94
2018-10-09T02:58:55.659Z,8.98
2018-10-09T03:01:25.667Z,9.05
2018-10-09T03:03:54.757Z,8.98
2018-10-09T03:06:23.784Z,9.05
2018-10-09T03:08:52.895Z,8.99
2018-10-09T03:11:21.957Z,8.97
2018-10-09T03:13:51.028Z,8.89
2018-10-09T03:16:20.104Z,8.79
2018-10-09T03:18:49.355Z,8.81
2018-10-09T03:21:18.631Z,8.54
2018-10-09T03:23:47.682Z,8.58
2018-10-09T03:26:16.813Z,8.77
2018-10-09T03:28:45.797Z,8.83
2018-10-09T03:31:15.197Z,8.38
2018-10-09T03:33:44.301Z,8.56
2018-10-09T03:36:14.251Z,8.71
2018-10-09T03:38:43.334Z,8.81
2018-10-09T03:41:12.691Z,8.62
2018-10-09T03:43:41.894Z,8.42
2018-10-09T03:46:10.943Z,8.36
2018-10-09T03:48:40.100Z,8.43
2018-10-09T03:51:09.100Z,8.59
2018-10-09T03:53:39.350Z,8.66
2018-10-09T03:56:08.698Z,8.46
2018-10-09T03:58:37.725Z,8.18
2018-10-09T04:01:06.942Z,8.06
2018-10-09T04:03:35.908Z,8.30
2018-10-09T04:06:05.944Z,8.17
2018-10-09T04:08:35.047Z,8.05
2018-10-09T04:11:04.169Z,8.21
2018-10-09T04:13:34.026Z,8.16
2018-10-09T04:16:03.591Z,7.95
2018-10-09T04:18:32.580Z,8.04
2018-10-09T04:21:02.500Z,8.20
2018-10-09T04:23:31.531Z,8.09
2018-10-09T04:26:00.986Z,8.08
2018-10-09T04:28:30.179Z,7.85
2018-10-09T04:30:59.226Z,7.71
2018-10-09T04:33:28.333Z,7.65
2018-10-09T04:35:57.417Z,7.87
2018-10-09T04:38:28.006Z,8.14
2018-10-09T04:40:57.380Z,8.15
2018-10-09T04:43:27.002Z,8.03
2018-10-09T04:45:56.075Z,7.94
2018-10-09T04:48:25.259Z,7.75
2018-10-09T04:50:54.362Z,7.63
2018-10-09T04:53:23.388Z,7.68
2018-10-09T04:55:52.500Z,7.36
2018-10-09T04:58:21.595Z,7.71
2018-10-09T05:00:50.623Z,7.97
2018-10-09T05:03:19.756Z,7.71
2018-10-09T05:05:48.813Z,7.63
2018-10-09T05:08:18.077Z,7.64
2018-10-09T05:10:47.239Z,7.77
2018-10-09T05:13:16.403Z,8.00
2018-10-09T05:15:45.493Z,8.09
2018-10-09T05:18:14.538Z,8.02
2018-10-09T05:20:43.612Z,8.09
2018-10-09T05:23:12.853Z,8.08
2018-10-09T05:25:42.018Z,8.16
2018-10-09T05:28:11.118Z,8.08
2018-10-09T05:30:40.289Z,8.08
2018-10-09T05:33:09.401Z,8.14
2018-10-09T05:35:39.152Z,8.21
2018-10-09T05:38:08.139Z,8.08
2018-10-09T05:40:37.308Z,8.17
2018-10-09T05:43:07.967Z,8.07
2018-10-09T05:45:40.313Z,7.85
2018-10-09T05:48:10.443Z,7.97
2018-10-09T05:50:39.880Z,8.12
2018-10-09T05:53:09.973Z,8.20
2018-10-09T05:55:38.953Z,8.21
2018-10-09T05:58:08.402Z,8.18
2018-10-09T06:00:37.443Z,8.16
2018-10-09T06:03:06.952Z,8.12
2018-10-09T06:05:36.020Z,7.86
2018-10-09T06:08:05.402Z,7.86
2018-10-09T06:10:34.485Z,7.90
2018-10-09T06:13:04.697Z,7.90
2018-10-09T06:15:33.881Z,7.99
2018-10-09T06:18:02.972Z,7.98
2018-10-09T06:20:32.571Z,8.21
2018-10-09T06:23:01.714Z,8.26
2018-10-09T06:25:30.773Z,8.21
2018-10-09T06:28:00.147Z,8.23
2018-10-09T06:30:29.230Z,8.28
2018-10-09T06:32:58.769Z,8.37
2018-10-09T06:35:28.450Z,8.45
2018-10-09T06:37:57.531Z,8.37
2018-10-09T06:40:26.610Z,8.35
2018-10-09T06:42:55.765Z,8.50
2018-10-09T06:45:25.566Z,8.54
2018-10-09T06:47:54.672Z,8.44
2018-10-09T06:50:23.803Z,8.66
2018-10-09T06:52:52.918Z,8.79
2018-10-09T06:55:22.027Z,8.80
2018-10-09T06:57:51.226Z,8.77
2018-10-09T07:00:21.019Z,8.71
2018-10-09T07:02:50.212Z,8.75
2018-10-09T07:05:19.286Z,8.61
2018-10-09T07:07:49.213Z,8.58
2018-10-09T07:10:18.602Z,8.67
2018-10-09T07:12:47.736Z,8.88
2018-10-09T07:15:16.927Z,8.94
2018-10-09T07:17:47.617Z,9.05
2018-10-09T07:20:17.764Z,9.19
2018-10-09T07:22:47.006Z,9.15
2018-10-09T07:25:16.381Z,8.99
2018-10-09T07:27:45.458Z,9.28
2018-10-09T07:30:15.736Z,8.99
2018-10-09T07:32:44.770Z,9.10
2018-10-09T07:35:14.941Z,9.12
2018-10-09T07:37:44.734Z,9.35
2018-10-09T07:40:13.705Z,9.46
2018-10-09T07:42:42.817Z,9.60
2018-10-09T07:45:11.776Z,9.91
2018-10-09T07:47:40.883Z,9.71
2018-10-09T07:50:10.143Z,9.68
2018-10-09T07:52:39.368Z,9.72
2018-10-09T07:55:08.456Z,9.91
2018-10-09T07:57:37.554Z,9.83
2018-10-09T08:00:07.329Z,10.29
2018-10-09T08:02:36.448Z,10.69
2018-10-09T08:05:05.660Z,10.11
2018-10-09T08:07:34.740Z,10.64
2018-10-09T08:10:03.850Z,10.62
2018-10-09T08:12:33.457Z,10.75
2018-10-09T08:15:03.038Z,11.10
2018-10-09T08:17:32.055Z,11.03
2018-10-09T08:20:01.220Z,11.53
2018-10-09T08:22:30.430Z,11.66
2018-10-09T08:24:59.763Z,11.25
2018-10-09T08:27:29.619Z,11.10
2018-10-09T08:29:58.589Z,12.03
2018-10-09T08:32:28.089Z,11.86
2018-10-09T08:34:57.166Z,12.11
2018-10-09T08:37:26.842Z,12.06
2018-10-09T08:39:55.996Z,12.17
2018-10-09T08:42:25.530Z,13.13
2018-10-09T08:44:54.540Z,13.70
2018-10-09T08:47:23.521Z,13.65
2018-10-09T08:49:52.556Z,13.41
2018-10-09T08:52:21.877Z,14.04
2018-10-09T08:54:50.881Z,14.25
2018-10-09T08:57:19.950Z,14.21
2018-10-09T08:59:49.568Z,13.80
2018-10-09T09:02:18.606Z,14.06
2018-10-09T09:04:47.574Z,15.04
2018-10-09T09:07:16.611Z,14.90
2018-10-09T09:09:45.649Z,14.84
2018-10-09T09:12:15.048Z,15.10
2018-10-09T09:14:44.058Z,14.74
2018-10-09T09:17:13.088Z,15.51
2018-10-09T09:19:42.433Z,15.61
2018-10-09T09:22:11.683Z,15.58
2018-10-09T09:24:40.712Z,15.71
2018-10-09T09:27:10.475Z,16.47
2018-10-09T09:29:39.804Z,15.65
2018-10-09T09:32:09.248Z,15.73
2018-10-09T09:34:38.267Z,16.53
2018-10-09T09:37:07.375Z,16.53
2018-10-09T09:39:36.446Z,16.22
2018-10-09T09:42:06.369Z,15.84
2018-10-09T09:44:35.448Z,15.76
2018-10-09T09:47:04.600Z,16.46
2018-10-09T09:49:33.745Z,16.86
2018-10-09T09:52:02.997Z,17.48
2018-10-09T09:54:32.080Z,17.92
2018-10-09T09:57:01.104Z,17.75
2018-10-09T09:59:30.507Z,17.85
2018-10-09T10:01:59.664Z,17.84
2018-10-09T10:04:28.780Z,18.17
2018-10-09T10:06:59.048Z,18.21
2018-10-09T10:09:28.484Z,17.20
2018-10-09T10:11:57.489Z,18.67
2018-10-09T10:14:33.177Z,17.84
2018-10-09T10:17:02.266Z,17.71
2018-10-09T10:19:31.894Z,18.34
2018-10-09T10:22:00.991Z,18.85
2018-10-09T10:24:30.205Z,18.85
2018-10-09T10:26:59.229Z,18.94
2018-10-09T10:29:28.302Z,19.06
2018-10-09T10:31:57.401Z,18.41
2018-10-09T10:34:27.763Z,19.09
2018-10-09T10:36:57.464Z,19.42
2018-10-09T10:39:26.633Z,19.57
2018-10-09T10:41:55.763Z,19.33
2018-10-09T10:44:25.553Z,19.94
2018-10-09T10:46:54.586Z,20.20
2018-10-09T10:49:23.762Z,20.71
2018-10-09T10:51:53.235Z,20.93
2018-10-09T10:54:22.503Z,20.62
2018-10-09T10:56:52.624Z,20.33
2018-10-09T10:59:21.741Z,20.06
2018-10-09T11:01:50.901Z,20.49
2018-10-09T11:04:19.949Z,20.16
2018-10-09T11:06:49.336Z,20.42
2018-10-09T11:09:19.283Z,20.68
2018-10-09T11:11:48.472Z,21.05
2018-10-09T11:14:17.591Z,21.18
2018-10-09T11:16:46.651Z,21.01
2018-10-09T11:19:15.935Z,21.42
2018-10-09T11:21:45.491Z,21.40
2018-10-09T11:24:14.584Z,20.71
2018-10-09T11:26:44.535Z,21.18
2018-10-09T11:29:13.905Z,21.59
2018-10-09T11:31:43.005Z,21.48
2018-10-09T11:34:13.123Z,21.21
2018-10-09T11:36:42.244Z,21.44
2018-10-09T11:39:12.096Z,21.55
2018-10-09T11:41:41.214Z,21.61
2018-10-09T11:44:10.438Z,21.32
2018-10-09T11:46:40.255Z,21.72
2018-10-09T11:49:09.608Z,21.29
2018-10-09T11:51:38.804Z,21.91
2018-10-09T11:54:08.227Z,21.53
2018-10-09T11:56:37.418Z,21.52
2018-10-09T11:59:08.400Z,21.98
2018-10-09T12:01:37.505Z,22.31
2018-10-09T12:04:06.642Z,22.65
2018-10-09T12:06:35.717Z,22.19
2018-10-09T12:09:05.941Z,22.56
2018-10-09T12:11:35.775Z,22.71
2018-10-09T12:14:04.975Z,22.62
2018-10-09T12:16:34.280Z,22.65
2018-10-09T12:19:04.312Z,22.48
2018-10-09T12:21:33.774Z,21.84
2018-10-09T12:24:02.878Z,22.25
2018-10-09T12:26:32.631Z,22.36
2018-10-09T12:29:01.916Z,22.41
2018-10-09T12:31:31.041Z,22.50
2018-10-09T12:34:00.286Z,22.35
2018-10-09T12:36:30.362Z,22.45
2018-10-09T12:41:30.850Z,22.07
2018-10-09T12:44:00.145Z,22.02
2018-10-09T12:46:29.283Z,22.35
2018-10-09T12:49:00.273Z,22.94
2018-10-09T12:51:29.618Z,22.85
2018-10-09T12:53:59.519Z,22.06
2018-10-09T12:56:28.734Z,22.27
2018-10-09T12:58:58.107Z,22.40
2018-10-09T13:01:27.104Z,22.88
2018-10-09T13:03:56.118Z,22.69
2018-10-09T13:06:25.254Z,22.81
2018-10-09T13:08:54.231Z,22.93
2018-10-09T13:11:23.618Z,23.08
2018-10-09T13:13:53.009Z,23.07
2018-10-09T13:16:22.262Z,23.14
2018-10-09T13:18:52.213Z,23.28
2018-10-09T13:21:22.276Z,23.22
2018-10-09T13:23:51.473Z,23.37
2018-10-09T13:26:20.907Z,23.33
2018-10-09T13:28:50.789Z,23.38
2018-10-09T13:31:19.939Z,23.25
2018-10-09T13:33:49.336Z,22.80
2018-10-09T13:36:19.757Z,22.73
2018-10-09T13:38:49.525Z,22.78
2018-10-09T13:41:18.731Z,22.66
2018-10-09T13:43:47.891Z,22.47
2018-10-09T13:46:17.502Z,22.36
2018-10-09T13:48:46.988Z,22.60
2018-10-09T13:51:16.301Z,22.69
2018-10-09T13:53:45.404Z,22.73
2018-10-09T13:56:15.181Z,22.96
2018-10-09T13:58:45.052Z,23.03
2018-10-09T14:01:14.109Z,22.95
2018-10-09T14:03:43.295Z,22.91
2018-10-09T14:06:12.771Z,22.78
2018-10-09T14:08:42.009Z,22.71
2018-10-09T14:11:11.150Z,22.92
2018-10-09T14:13:40.569Z,22.81
2018-10-09T14:16:10.645Z,22.85
2018-10-09T14:18:39.865Z,22.90
2018-10-09T14:21:09.597Z,22.92
2018-10-09T14:23:38.760Z,22.95
2018-10-09T14:26:08.144Z,22.71
2018-10-09T14:28:37.250Z,22.52
2018-10-09T14:31:06.667Z,22.61
2018-10-09T14:33:36.160Z,22.62
2018-10-09T14:36:05.289Z,22.41
2018-10-09T14:38:34.514Z,22.64
2018-10-09T14:41:04.247Z,22.53
2018-10-09T14:43:33.372Z,22.40
2018-10-09T14:46:03.132Z,22.33
2018-10-09T14:48:32.230Z,22.36
2018-10-09T14:51:02.319Z,22.28
2018-10-09T14:53:31.703Z,22.28
2018-10-09T14:56:01.386Z,22.24
2018-10-09T14:58:30.538Z,21.88
2018-10-09T15:00:59.724Z,21.90
2018-10-09T15:03:29.857Z,21.59
2018-10-09T15:05:58.995Z,21.71
2018-10-09T15:08:30.329Z,21.39
2018-10-09T15:10:59.503Z,21.08
2018-10-09T15:13:28.791Z,20.92
2018-10-09T15:15:58.300Z,20.54
2018-10-09T15:18:28.376Z,20.18
2018-10-09T15:20:57.605Z,19.88
2018-10-09T15:23:27.074Z,19.75
2018-10-09T15:25:57.124Z,19.56
2018-10-09T15:28:26.250Z,19.63
2018-10-09T15:30:55.394Z,19.14
2018-10-09T15:33:24.864Z,18.90
2018-10-09T15:35:55.492Z,18.90
2018-10-09T15:38:25.645Z,19.09
2018-10-09T15:40:54.936Z,18.86
2018-10-09T15:43:24.094Z,18.63
2018-10-09T15:45:54.109Z,18.62
2018-10-09T15:48:23.346Z,18.49
2018-10-09T15:50:52.562Z,18.42
2018-10-09T15:53:22.780Z,18.16
2018-10-09T15:55:53.615Z,18.36
2018-10-09T15:58:22.981Z,18.15
2018-10-09T16:00:53.416Z,18.06
2018-10-09T16:03:23.575Z,17.99
2018-10-09T16:05:52.851Z,17.92
2018-10-09T16:08:22.924Z,18.11
2018-10-09T16:10:52.093Z,18.14
2018-10-09T16:13:21.140Z,18.05
2018-10-09T16:15:51.974Z,17.88
2018-10-09T16:18:21.375Z,17.80
2018-10-09T16:20:50.935Z,17.59
2018-10-09T16:23:20.712Z,17.67
2018-10-09T16:25:50.584Z,17.52
2018-10-09T16:28:20.169Z,17.37
2018-10-09T16:30:49.436Z,17.15
2018-10-09T16:33:18.716Z,17.26
2018-10-09T16:35:48.232Z,17.20
2018-10-09T16:38:17.484Z,17.28
2018-10-09T16:40:47.608Z,17.31
2018-10-09T16:43:17.141Z,17.31
2018-10-09T16:45:46.387Z,17.15
2018-10-09T16:48:15.724Z,16.94
2018-10-09T16:50:44.953Z,16.74
2018-10-09T16:53:14.155Z,16.69
2018-10-09T16:55:43.661Z,16.68
2018-10-09T16:58:12.896Z,16.47
2018-10-09T17:00:42.074Z,16.36
2018-10-09T17:03:11.758Z,16.28
2018-10-09T17:05:40.832Z,16.36
2018-10-09T17:08:11.879Z,16.39
2018-10-09T17:10:41.035Z,16.24
2018-10-09T17:13:10.160Z,16.26
2018-10-09T17:15:39.342Z,16.11
2018-10-09T17:18:08.422Z,16.06
2018-10-09T17:20:37.632Z,15.91
2018-10-09T17:23:06.940Z,15.75
2018-10-09T17:25:36.135Z,15.80
2018-10-09T17:28:06.328Z,15.84
2018-10-09T17:30:35.756Z,15.69
2018-10-09T17:33:06.210Z,15.66
2018-10-09T17:35:36.266Z,15.62
2018-10-09T17:38:06.033Z,15.51
2018-10-09T17:40:35.205Z,15.39
2018-10-09T17:43:04.575Z,15.24
2018-10-09T17:45:33.768Z,15.37
2018-10-09T17:48:03.801Z,15.33
2018-10-09T17:50:32.931Z,15.38
2018-10-09T17:53:02.347Z,15.06
2018-10-09T17:55:32.160Z,14.88
2018-10-09T17:58:01.271Z,14.82
2018-10-09T18:00:30.484Z,14.81
2018-10-09T18:02:59.630Z,14.50
2018-10-09T18:05:28.788Z,14.39
2018-10-09T18:07:58.369Z,14.32
2018-10-09T18:10:28.387Z,14.33
2018-10-09T18:12:58.484Z,14.13
2018-10-09T18:15:29.484Z,14.25
2018-10-09T18:17:59.814Z,14.37
2018-10-09T18:20:31.643Z,14.65
2018-10-09T18:23:00.905Z,14.49
2018-10-09T18:25:30.713Z,14.37
2018-10-09T18:28:00.839Z,14.40
2018-10-09T18:30:30.151Z,14.68
2018-10-09T18:32:59.409Z,14.48
2018-10-09T18:35:31.069Z,14.33
2018-10-09T18:38:01.056Z,14.44
2018-10-09T18:40:32.697Z,14.30
2018-10-09T18:43:01.877Z,14.11
2018-10-09T18:45:31.508Z,14.14
2018-10-09T18:48:01.515Z,14.12
2018-10-09T18:50:31.199Z,14.07
2018-10-09T18:53:01.467Z,13.95
2018-10-09T18:55:32.008Z,13.81
2018-10-09T18:58:02.264Z,13.75
2018-10-09T19:00:32.657Z,13.81
2018-10-09T19:03:02.049Z,13.78
2018-10-09T19:05:31.771Z,13.94
2018-10-09T19:08:01.076Z,13.76
2018-10-09T19:10:32.178Z,13.79
2018-10-09T19:13:02.124Z,13.78
2018-10-09T19:15:31.399Z,13.78
2018-10-09T19:18:00.999Z,13.81
2018-10-09T19:20:30.192Z,13.88
2018-10-09T19:22:59.408Z,13.69
2018-10-09T19:25:28.578Z,13.64
2018-10-09T19:27:57.884Z,13.71
2018-10-09T19:30:27.207Z,13.72
2018-10-09T19:32:56.390Z,13.77
2018-10-09T19:35:26.107Z,13.74
2018-10-09T19:37:56.205Z,13.53
2018-10-09T19:40:25.334Z,13.51
2018-10-09T19:42:55.090Z,13.59
2018-10-09T19:45:24.540Z,13.56
2018-10-09T19:47:53.979Z,13.42
2018-10-09T19:50:23.559Z,13.33
2018-10-09T19:52:53.760Z,13.23
2018-10-09T19:55:23.103Z,13.22
2018-10-09T19:57:52.559Z,13.24
2018-10-09T20:00:22.833Z,13.14
2018-10-09T20:02:52.478Z,13.11
2018-10-09T20:05:23.018Z,13.24
2018-10-09T20:07:52.248Z,13.10
2018-10-09T20:10:21.641Z,12.95
2018-10-09T20:12:52.432Z,12.84
2018-10-09T20:15:22.274Z,13.11
2018-10-09T20:17:52.825Z,13.07
2018-10-09T20:20:21.989Z,13.07
2018-10-09T20:22:51.924Z,13.05
2018-10-09T20:25:20.954Z,13.13
2018-10-09T20:27:50.127Z,13.08
2018-10-09T20:30:19.848Z,12.58
2018-10-09T20:32:49.120Z,12.58
2018-10-09T20:35:18.267Z,12.44
2018-10-09T20:37:47.405Z,12.44
2018-10-09T20:40:16.900Z,12.45
2018-10-09T20:42:46.217Z,12.43
2018-10-09T20:45:15.612Z,12.52
2018-10-09T20:47:46.680Z,12.60
2018-10-09T20:50:16.237Z,12.66
2018-10-09T20:52:45.511Z,12.52
2018-10-09T20:55:14.570Z,12.51
2018-10-09T20:57:44.025Z,12.34
2018-10-09T21:00:13.160Z,12.10
2018-10-09T21:02:42.478Z,12.20
2018-10-09T21:05:12.764Z,12.13
2018-10-09T21:07:41.909Z,12.11
2018-10-09T21:10:11.193Z,12.07
2018-10-09T21:12:40.310Z,12.03
2018-10-09T21:15:09.723Z,12.10
2018-10-09T21:17:38.839Z,11.73
2018-10-09T21:20:07.935Z,11.77
2018-10-09T21:22:37.287Z,11.86
2018-10-09T21:25:06.288Z,11.82
2018-10-09T21:27:35.451Z,11.87
2018-10-09T21:30:04.748Z,11.80
2018-10-09T21:32:33.805Z,11.78
2018-10-09T21:35:03.020Z,11.80
2018-10-09T21:37:32.127Z,11.81
2018-10-09T21:40:01.117Z,11.81
2018-10-09T21:42:31.623Z,11.82
2018-10-09T21:45:00.779Z,11.76
2018-10-09T21:47:29.784Z,11.71
2018-10-09T21:49:58.897Z,11.64
2018-10-09T21:52:28.320Z,11.69
2018-10-09T21:54:57.558Z,11.64
2018-10-09T21:57:26.624Z,11.74
2018-10-09T21:59:55.812Z,11.91
2018-10-09T22:02:24.885Z,11.53
2018-10-09T22:04:54.048Z,11.52
2018-10-09T22:07:23.788Z,11.53
2018-10-09T22:09:53.094Z,11.55
2018-10-09T22:12:22.813Z,11.52
2018-10-09T22:14:51.993Z,11.61
2018-10-09T22:17:21.246Z,11.30
2018-10-09T22:19:50.328Z,11.31
2018-10-09T22:22:20.201Z,11.28
2018-10-09T22:24:49.305Z,11.17
2018-10-09T22:27:18.628Z,11.10
2018-10-09T22:29:47.756Z,10.90
2018-10-09T22:32:17.028Z,10.95
2018-10-09T22:34:47.677Z,10.94
2018-10-09T22:37:17.245Z,10.83
2018-10-09T22:39:46.353Z,10.80
2018-10-09T22:42:15.933Z,10.76
2018-10-09T22:44:45.124Z,10.79
2018-10-09T22:47:14.567Z,10.74
2018-10-09T22:49:43.715Z,10.63
2018-10-09T22:52:12.934Z,10.60
2018-10-09T22:54:42.534Z,10.74
2018-10-09T22:57:11.702Z,10.61
2018-10-09T22:59:41.959Z,10.62
2018-10-09T23:02:11.117Z,10.64
2018-10-09T23:04:41.389Z,10.66
2018-10-09T23:07:10.582Z,10.50
2018-10-09T23:09:39.726Z,10.22
2018-10-09T23:12:08.840Z,10.24
2018-10-09T23:14:37.941Z,10.29
2018-10-09T23:17:07.161Z,10.22
2018-10-09T23:19:36.187Z,10.38
2018-10-09T23:22:05.330Z,10.31
2018-10-09T23:24:34.613Z,10.39
2018-10-09T23:27:03.716Z,10.31
2018-10-09T23:29:32.856Z,10.14
2018-10-09T23:32:01.987Z,10.32
2018-10-09T23:34:31.029Z,10.12
2018-10-09T23:37:00.109Z,10.08
2018-10-09T23:39:29.241Z,10.15
2018-10-09T23:41:58.864Z,10.00
2018-10-09T23:44:28.262Z,9.83
2018-10-09T23:46:57.251Z,9.93
2018-10-09T23:49:26.344Z,9.98
2018-10-09T23:51:55.388Z,9.93
2018-10-09T23:54:24.553Z,9.92
2018-10-09T23:56:53.852Z,9.73
2018-10-09T23:59:22.878Z,9.82
